Date,TemperatureHighF,TemperatureAvgF,TemperatureLowF,DewpointHighF,DewpointAvgF,DewpointLowF,HumidityHigh,HumidityAvg,HumidityLow,PressureMaxIn,PressureMinIn,WindSpeedMaxMPH,WindSpeedAvgMPH,GustSpeedMaxMPH,PrecipitationSumIn
2013-1-1,28,13,10,19,-25,-100,92,54,65,30.71,30.52,3,-344,4,0.00
2013-1-2,11,9,8,9,7,5,91,90,88,30.71,30.68,3,1,4,0.00
2013-1-7,14,2,13,11,-84,-100,91,13,90,30.47,30.40,1,-852,1,0.00
2013-1-8,32,15,20,26,-30,-100,91,49,76,30.51,30.46,2,-424,3,0.00
2013-1-10,32,8,27,18,-71,-100,68,14,46,30.01,29.83,13,-745,22,0.00
2013-1-11,-200,0,200,-100,-100,-100,0,0,100,30.09,30.01,0,-999,0,0.00
2013-1-12,23,8,8,12,-39,-100,83,41,55,30.46,30.31,3,-434,4,0.00
2013-1-13,22,10,2,10,-12,-100,87,62,51,30.64,30.43,8,-163,10,0.00
2013-1-14,25,12,3,9,-12,-100,87,56,46,30.79,30.64,5,-168,7,0.00
2013-1-15,32,18,10,14,-9,-100,80,51,43,30.92,30.78,3,-166,5,0.00
2013-1-16,34,19,12,16,-7,-100,87,54,46,30.92,30.78,3,-168,6,0.00
2013-1-17,32,18,11,17,-6,-100,89,58,52,30.82,30.67,4,-170,6,0.00
2013-1-18,33,18,12,18,-5,-100,90,60,51,30.74,30.62,3,-166,5,0.00
2013-1-19,34,19,10,20,-3,-100,91,61,51,30.76,30.62,4,-150,7,0.00
2013-1-20,35,19,8,19,-5,-100,91,59,49,30.74,30.61,5,-165,7,0.00
2013-1-21,38,21,13,19,-4,-100,91,56,44,30.68,30.49,4,-161,6,0.00
2013-1-22,24,7,13,17,-55,-100,91,34,74,30.55,30.37,2,-602,3,0.00
2013-1-23,-200,0,200,-100,-100,-100,0,0,100,30.44,29.93,0,-999,0,0.00
2013-1-24,-200,0,200,-100,-100,-100,0,0,100,30.11,30.00,0,-999,0,0.00
2013-1-25,-200,0,200,-100,-100,-100,0,0,100,30.10,29.87,0,-999,0,0.00
2013-1-26,-200,0,200,-100,-100,-100,0,0,100,29.87,29.61,0,-999,0,0.00
2013-1-27,37,15,22,23,-41,-100,76,31,46,30.18,29.69,14,-497,18,0.00
2013-1-28,39,28,19,28,6,-100,77,56,45,30.26,30.16,11,-115,17,0.00
2013-1-29,49,36,34,32,10,-100,78,50,47,30.40,30.17,18,-144,21,0.00
2013-1-30,55,37,32,34,10,-100,86,53,37,30.44,30.34,9,-144,12,0.00
2013-1-31,55,37,30,33,15,-100,88,58,41,30.40,30.22,6,-117,10,0.00
2013-2-1,53,36,27,35,15,-100,93,61,45,30.39,30.27,5,-117,8,0.00
2013-2-2,46,33,28,34,13,-100,92,65,58,30.43,30.33,3,-130,5,0.00
2013-2-3,53,34,28,35,12,-100,94,59,41,30.34,30.22,6,-130,9,0.00
2013-2-4,57,37,27,28,8,-100,86,44,28,30.27,30.07,8,-133,10,0.00
2013-2-5,61,40,32,27,2,-100,70,33,12,30.08,29.84,17,-131,21,0.00
2013-2-6,50,35,28,29,7,-100,85,44,27,30.15,30.03,5,-113,8,0.00
2013-2-7,51,18,26,19,-49,-100,58,16,13,30.05,29.81,22,-541,29,0.00
2013-2-8,37,16,26,24,-41,-100,73,29,52,29.89,29.78,11,-509,20,0.00
2013-2-10,43,42,41,14,13,12,32,30,29,30.13,30.12,10,7,14,0.00
2013-2-11,38,30,26,18,15,10,61,52,42,30.38,30.31,4,2,13,0.00
2013-2-12,50,33,21,21,4,-100,67,41,30,30.47,30.37,6,-112,8,0.00
2013-2-13,52,35,26,25,6,-100,77,44,33,30.46,30.31,5,-132,8,0.00
2013-2-14,52,36,27,29,10,-100,76,48,38,30.49,30.35,4,-116,6,0.00
2013-2-15,54,37,27,29,12,-100,84,49,33,30.52,30.36,4,-100,6,0.00
2013-2-16,57,27,28,27,-19,-100,77,33,21,30.39,30.05,6,-327,8,0.00
2013-2-17,49,35,27,28,2,-100,65,34,19,30.09,29.99,10,-110,14,0.00
2013-2-18,52,35,22,17,2,-100,69,34,23,30.10,29.76,14,-111,17,0.00
2013-2-19,48,35,34,27,1,-100,76,35,18,29.77,29.50,22,-126,30,0.00
2013-2-20,44,31,27,21,-2,-100,67,35,20,30.00,29.66,14,-129,20,0.00
2013-2-21,45,32,24,20,0,-100,58,35,19,30.18,29.98,9,-109,14,0.00
2013-2-22,52,37,29,24,5,-100,72,37,25,30.28,29.99,16,-119,21,0.00
2013-2-23,46,23,21,32,-22,-100,75,35,30,30.31,29.84,25,-333,32,0.00
2013-2-24,41,28,18,17,-2,-100,78,41,24,30.51,30.31,4,-118,6,0.00
2013-2-25,28,15,22,14,-30,-100,66,36,48,30.36,30.24,4,-366,5,0.00
2013-2-28,62,53,41,31,27,18,61,38,25,30.47,30.36,4,0,8,0.00
2013-3-1,65,45,34,34,17,-100,79,43,25,30.48,30.28,4,-96,5,0.00
2013-3-2,65,49,36,29,14,-100,69,33,19,30.31,29.97,7,-88,11,0.00
2013-3-3,54,40,42,42,19,-100,90,65,28,30.00,29.91,11,-130,14,0.13
2013-3-4,54,39,35,39,17,-100,85,56,43,30.15,29.99,6,-114,8,0.00
2013-3-5,66,44,31,34,14,-100,89,43,13,30.00,29.65,22,-101,30,0.00
2013-3-6,50,29,33,30,-18,-100,61,28,26,29.94,29.63,33,-315,34,0.00
2013-3-7,43,32,29,29,8,-100,83,52,40,29.98,29.89,7,-115,10,0.00
2013-3-8,49,35,31,28,10,-100,84,50,36,29.99,29.83,5,-114,10,0.00
2013-3-9,53,38,30,22,0,-100,65,28,10,30.41,29.99,5,-94,11,0.00
2013-3-10,57,40,28,16,-1,-100,50,24,14,30.50,30.34,5,-101,6,0.00
2013-3-11,63,45,33,18,1,-100,42,22,11,30.35,30.13,5,-92,8,0.00
2013-3-12,69,50,34,23,11,-100,52,26,13,30.22,30.08,5,-62,6,0.00
2013-3-13,76,37,37,26,-21,-100,52,18,10,30.19,30.01,3,-348,6,0.00
2013-3-14,69,41,46,28,-16,-100,48,17,16,30.08,29.98,3,-316,4,0.00
2013-3-15,72,54,41,29,13,-100,57,26,9,30.07,29.91,8,-65,9,0.00
2013-3-16,70,53,42,28,14,-100,52,27,10,29.97,29.76,4,-62,6,0.00
2013-3-17,62,49,39,25,9,-100,51,24,11,30.01,29.89,6,-54,16,0.00
2013-3-18,62,47,32,29,6,-100,47,23,14,30.08,29.92,3,-85,6,0.00
2013-3-19,65,52,45,38,22,-100,56,37,26,30.05,29.87,15,-61,21,0.00
2013-3-20,63,49,48,35,17,-100,53,36,30,29.88,29.75,27,-109,32,0.00
2013-3-21,56,43,35,32,12,-100,80,36,18,30.01,29.84,11,-76,13,0.00
2013-3-22,49,37,27,13,3,-100,47,27,15,30.20,30.01,9,-42,10,0.00
2013-3-23,48,34,22,9,-3,-100,48,27,16,30.32,30.12,3,-78,6,0.00
2013-3-24,60,41,29,18,-2,-100,38,21,16,30.22,29.97,4,-96,5,0.00
2013-3-25,69,51,36,22,5,-100,40,20,5,29.99,29.75,12,-66,19,0.00
2013-3-26,66,52,42,30,17,-100,50,29,21,29.83,29.71,7,-62,9,0.00
2013-3-27,66,51,38,32,25,-100,68,41,23,29.90,29.78,6,-32,8,0.00
2013-3-28,66,51,47,40,23,-100,73,41,22,30.03,29.87,14,-77,21,0.00
2013-3-29,69,53,38,36,24,-100,77,40,18,30.11,29.97,3,-50,5,0.00
2013-3-30,74,57,41,29,21,-100,53,29,14,30.06,29.80,3,-43,11,0.00
2013-3-31,55,47,39,40,26,-100,79,51,26,29.94,29.77,4,-46,8,0.00
2013-4-1,60,45,36,37,22,-100,82,51,27,30.06,29.94,5,-77,11,0.00
2013-4-2,65,51,41,37,26,-100,78,46,27,30.12,29.97,3,-50,6,0.00
2013-4-3,73,56,42,38,24,-100,72,35,13,30.08,29.88,3,-35,4,0.00
2013-4-4,69,55,46,36,26,-100,52,36,21,29.91,29.77,0,-46,0,0.00
2013-4-5,68,53,40,33,19,-100,60,32,13,29.99,29.86,0,-43,3,0.00
2013-4-6,65,52,47,30,19,-100,42,30,18,30.00,29.87,12,-51,19,0.00
2013-4-7,66,52,44,32,20,-100,50,33,19,29.94,29.53,21,-50,23,0.00
2013-4-8,47,39,34,34,19,-100,85,53,30,30.05,29.50,13,-42,20,0.00
2013-4-9,57,43,30,23,12,-100,67,34,17,30.22,30.05,10,-50,14,0.00
2013-4-10,73,55,36,34,21,-100,56,31,16,30.27,29.90,1,-43,1,0.00
2013-4-11,62,51,44,45,25,-100,93,45,19,29.97,29.82,4,-46,6,0.31
2013-4-12,68,52,37,32,17,-100,64,31,12,29.98,29.73,2,-44,3,0.00
2013-4-13,73,60,47,33,19,-100,42,22,16,29.77,29.53,4,-27,15,0.00
2013-4-14,65,49,35,33,17,4,65,29,17,29.77,29.52,3,0,8,0.00
2013-4-15,45,36,32,35,26,-100,95,75,57,29.86,29.63,10,-41,18,0.07
2013-4-16,45,36,32,29,16,-100,76,50,23,30.18,29.85,14,-42,19,0.00
2013-4-17,50,38,30,20,6,-100,53,30,16,30.35,30.18,4,-47,10,0.00
2013-4-18,59,44,29,24,8,-100,53,27,16,30.40,30.26,1,-47,3,0.00
2013-4-19,72,54,40,31,18,-100,46,28,16,30.30,29.94,7,-47,10,0.00
2013-4-20,66,54,40,29,23,14,61,32,14,30.13,29.97,6,0,8,0.00
2013-4-21,74,60,39,26,21,17,51,24,13,30.09,29.89,3,0,4,0.00
2013-4-22,67,56,42,33,24,6,56,31,17,30.11,29.89,7,0,10,0.00
2013-4-23,61,48,34,10,1,-15,28,16,4,30.20,29.94,2,0,3,0.00
2013-4-24,67,54,37,9,3,-5,23,14,7,30.12,29.88,1,0,3,0.00
2013-4-25,74,58,40,24,2,-34,30,12,1,29.99,29.89,3,0,5,0.00
2013-4-26,74,58,46,25,21,15,33,25,13,30.13,29.98,3,0,5,0.00
2013-4-30,65,55,46,-3,-7,-12,12,7,5,30.07,29.81,0,0,0,0.00
2013-5-1,63,50,36,9,-2,-12,28,13,5,30.41,30.07,2,0,9,0.00
2013-5-2,73,56,38,18,-2,-14,24,10,3,30.47,30.14,4,0,5,0.00
2013-5-3,80,64,44,18,2,-14,28,10,3,30.14,29.79,3,0,7,0.00
2013-5-4,70,61,52,29,23,8,34,24,14,29.85,29.55,1,0,8,0.00
2013-5-5,73,56,48,42,21,-100,60,33,17,29.65,29.49,6,-84,11,0.00
2013-5-6,70,56,50,42,33,-100,72,48,20,29.77,29.61,22,-25,25,0.00
2013-5-7,60,50,46,48,37,-100,92,68,47,29.91,29.77,13,-34,17,0.23
2013-5-8,52,38,48,48,11,-100,93,67,86,29.99,29.90,7,-241,9,0.01
2013-5-11,87,79,70,40,27,17,32,17,8,29.96,29.91,0,0,0,0.00
2013-5-12,89,76,60,41,34,24,42,23,10,30.00,29.81,6,0,10,0.00
2013-5-13,88,75,58,38,31,25,42,22,11,29.91,29.74,6,0,20,0.00
2013-5-14,86,72,56,39,31,19,38,24,9,29.82,29.65,3,0,7,0.00
2013-5-15,83,70,59,41,26,-1,50,24,4,29.77,29.67,9,1,15,0.00
2013-5-16,64,59,52,46,36,30,64,43,31,29.78,29.70,12,2,16,0.00
2013-5-17,72,56,50,42,24,-100,72,37,15,29.89,29.73,17,-67,22,0.00
2013-5-18,74,60,48,38,32,26,58,36,17,29.98,29.85,6,1,12,0.00
2013-5-19,70,59,49,38,28,15,62,34,12,30.10,29.97,8,0,11,0.00
2013-5-20,76,61,43,32,20,3,44,24,6,30.14,29.85,3,0,6,0.00
2013-5-21,80,64,54,32,14,-100,34,17,9,29.85,29.54,26,-46,33,0.00
2013-5-22,61,52,42,28,9,-9,48,21,6,29.76,29.57,14,1,22,0.00
2013-5-23,63,52,36,20,12,-1,33,20,10,29.94,29.74,4,0,6,0.00
2013-5-24,78,60,39,28,12,-32,50,21,1,29.94,29.70,5,0,7,0.00
2013-5-25,76,63,49,28,18,10,28,19,10,29.82,29.68,5,0,7,0.00
2013-5-26,75,62,48,30,24,19,40,25,13,29.90,29.74,2,0,9,0.00
2013-5-27,71,58,47,47,32,19,82,39,16,29.91,29.76,13,0,15,0.01
2013-5-28,68,59,51,47,37,28,83,47,24,29.80,29.72,16,2,19,0.01
2013-5-29,74,64,53,39,32,25,54,33,17,29.76,29.66,10,0,17,0.00
2013-5-30,79,65,49,38,29,16,63,30,10,29.88,29.72,3,0,9,0.00
2013-5-31,79,66,48,24,17,6,28,16,6,30.03,29.88,1,0,4,0.00
2013-6-1,86,71,53,31,18,10,38,15,6,29.96,29.68,0,0,0,0.00
2013-6-2,92,77,63,37,30,20,33,19,8,29.68,29.45,4,0,6,0.00
2013-6-3,86,72,56,26,23,12,24,16,10,29.75,29.61,1,0,9,0.00
2013-6-4,90,78,57,24,18,11,24,11,7,29.81,29.66,2,0,4,0.00
2013-6-5,92,78,61,32,21,5,27,13,4,29.85,29.67,2,0,5,0.00
2013-6-6,96,82,65,34,24,2,26,14,3,29.77,29.60,1,0,2,0.00
2013-6-7,98,85,66,40,26,9,29,14,4,29.73,29.57,8,0,11,0.00
2013-6-8,96,84,70,40,36,22,32,19,12,29.72,29.58,5,0,9,0.00
2013-6-9,102,84,68,43,30,22,32,15,8,29.66,29.44,11,1,21,0.00
2013-6-10,88,69,63,52,39,-100,63,39,24,29.67,29.39,25,-40,32,0.22
2013-6-11,88,72,54,50,39,28,73,35,12,29.76,29.67,12,1,18,0.00
2013-6-12,89,75,59,41,32,15,47,23,11,29.74,29.56,4,0,16,0.00
2013-6-13,80,67,51,33,16,-31,43,19,1,29.96,29.72,5,0,11,0.00
2013-6-14,76,63,46,29,22,12,44,23,11,30.01,29.79,5,0,8,0.00
2013-6-15,86,71,53,28,15,1,32,13,4,29.82,29.66,2,0,3,0.00
2013-6-16,86,74,59,30,23,13,22,15,7,29.85,29.75,0,0,0,0.00
2013-6-17,88,74,58,34,24,3,37,17,5,29.87,29.67,0,0,0,0.00
2013-6-18,84,68,53,34,23,13,39,20,7,29.74,29.47,2,0,5,0.00
2013-6-19,73,60,46,28,24,17,47,26,12,29.87,29.67,0,0,0,0.00
2013-6-20,74,62,46,32,28,23,49,29,16,29.92,29.74,3,0,4,0.00
2013-6-21,76,64,46,35,28,18,57,29,13,29.94,29.78,1,0,2,0.00
2013-6-22,82,68,52,31,26,20,36,22,11,29.92,29.68,0,0,0,0.00
2013-6-23,81,70,60,41,33,22,39,27,12,29.69,29.51,0,0,0,0.00
2013-6-24,68,61,53,54,42,33,82,52,32,29.75,29.55,1,0,4,0.02
2013-6-25,82,69,53,52,48,44,84,52,27,29.82,29.74,3,0,4,0.00
2013-6-26,92,76,54,49,42,27,71,35,11,29.88,29.76,3,0,3,0.00
2013-6-27,98,81,62,46,39,34,52,26,12,29.95,29.80,0,0,0,0.00
2013-6-28,103,88,71,47,36,26,32,18,7,29.89,29.63,16,0,21,0.00
2013-6-29,101,89,77,50,41,24,38,21,8,29.72,29.58,12,1,16,0.00
2013-6-30,104,90,74,43,35,24,26,15,7,29.68,29.50,10,0,14,0.00
2013-7-1,105,91,78,48,40,30,32,18,8,29.71,29.55,6,0,9,0.00
2013-7-2,106,86,75,51,40,-100,39,23,9,29.78,29.59,6,-29,28,0.00
2013-7-3,99,84,68,56,50,42,58,34,15,29.82,29.60,7,0,11,0.00
2013-7-4,96,80,68,65,53,48,79,43,21,29.71,29.48,5,0,8,0.54
2013-7-5,98,77,63,62,37,-100,87,36,6,29.58,29.44,13,-56,17,0.00
2013-7-6,96,80,63,45,33,18,52,22,6,29.58,29.44,4,0,6,0.00
2013-7-7,94,81,64,39,31,23,34,18,8,29.65,29.51,2,0,5,0.00
2013-7-8,93,81,66,40,32,24,37,20,9,29.77,29.65,7,0,12,0.00
2013-7-9,95,83,68,37,29,21,27,15,8,29.86,29.71,3,0,8,0.00
2013-7-10,96,82,66,41,33,25,32,18,10,29.84,29.65,3,0,5,0.00
2013-7-11,91,82,72,53,34,13,49,21,8,29.69,29.56,10,1,14,0.00
2013-7-12,93,79,62,37,24,0,31,16,3,29.73,29.58,3,0,4,0.00
2013-7-13,93,79,60,34,20,5,32,14,4,29.80,29.66,2,0,4,0.00
2013-7-14,94,82,64,35,26,18,27,14,7,29.83,29.63,6,0,9,0.00
2013-7-15,97,84,70,41,34,25,27,17,9,29.68,29.44,6,0,9,0.00
2013-7-16,95,83,72,42,33,17,29,18,7,29.72,29.50,12,0,14,0.00
2013-7-17,94,79,61,31,18,0,29,13,3,29.89,29.72,8,0,10,0.00
2013-7-18,99,85,70,33,17,-19,25,11,1,29.86,29.65,5,0,8,0.00
2013-7-19,103,89,75,41,27,6,29,13,3,29.71,29.52,7,0,13,0.00
2013-7-20,105,90,79,38,30,14,21,13,4,29.61,29.42,8,0,12,0.00
2013-7-21,104,88,76,41,22,-100,21,11,4,29.56,29.43,7,-47,10,0.00
2013-7-22,103,91,79,48,38,22,28,17,6,29.62,29.49,4,0,10,0.00
2013-7-23,86,81,77,46,42,38,28,25,22,29.70,29.60,14,7,19,0.00
2013-7-25,86,81,78,51,47,44,39,31,23,29.83,29.77,11,1,18,0.00
2013-7-26,98,76,69,62,41,-100,68,37,15,29.86,29.70,20,-65,29,0.10
2013-7-27,94,81,67,58,47,31,63,35,11,29.82,29.59,5,0,9,0.00
2013-7-28,95,82,72,47,41,30,39,25,11,29.66,29.48,5,0,9,0.00
2013-7-31,91,81,72,33,30,27,23,16,13,29.73,29.62,0,0,0,0.00
2013-8-1,86,75,60,37,20,-26,39,17,1,29.78,29.68,7,0,24,0.00
2013-8-2,86,72,54,32,22,14,36,17,7,29.84,29.69,3,0,6,0.00
2013-8-3,89,77,64,36,26,13,32,17,6,29.81,29.66,7,1,14,0.00
2013-8-4,93,81,68,41,31,20,32,18,7,29.79,29.62,8,0,12,0.00
2013-8-5,94,81,67,35,23,7,28,14,4,29.77,29.62,3,0,5,0.00
2013-8-6,96,83,72,39,31,13,29,17,5,29.75,29.56,9,0,17,0.00
2013-8-7,89,77,72,35,22,-100,23,15,11,29.71,29.60,8,-53,12,0.00
2013-8-8,86,78,67,43,38,34,41,25,16,29.71,29.58,11,1,21,0.00
2013-8-9,87,69,61,46,27,-100,52,27,14,29.73,29.60,6,-80,15,0.00
2013-8-10,86,75,63,36,29,17,35,20,8,29.81,29.68,11,1,17,0.22
2013-8-11,89,75,60,40,30,15,45,21,7,29.85,29.66,10,3,16,0.00
2013-8-12,91,75,65,37,24,-100,34,17,8,29.79,29.65,10,-46,14,0.00
2013-8-13,93,77,64,39,23,-100,36,17,5,29.84,29.69,8,-31,10,0.00
2013-8-14,95,79,64,36,22,-100,32,15,5,29.80,29.63,4,-27,7,0.00
2013-8-15,96,79,64,33,18,-100,26,12,3,29.76,29.63,5,-28,11,0.00
2013-8-16,95,77,62,34,15,-100,31,12,4,29.83,29.71,5,-32,9,0.00
2013-8-17,80,66,65,33,17,-100,27,18,11,29.82,29.79,3,-73,5,0.00
2013-8-20,73,71,68,59,54,50,71,55,44,29.81,29.66,2,0,6,0.08
2013-8-21,87,70,62,57,40,-100,80,43,23,29.81,29.69,7,-78,17,0.00
2013-8-22,88,73,62,53,36,-100,70,33,13,29.81,29.63,15,-54,23,0.00
2013-8-23,87,71,59,42,27,-100,52,23,11,29.74,29.56,8,-48,10,0.00
2013-8-24,72,71,71,32,32,31,24,23,23,29.64,29.64,1,0,5,0.00
2013-8-25,79,71,66,40,38,35,37,31,21,29.77,29.67,0,0,0,0.00
2013-8-26,86,70,55,43,32,-100,56,29,13,29.85,29.70,1,-36,4,0.00
2013-8-27,88,71,60,55,36,-100,53,32,19,29.78,29.59,2,-32,3,0.00
2013-8-28,90,73,61,54,40,-100,67,36,21,29.75,29.64,6,-51,8,0.00
2013-8-29,91,75,65,46,33,-100,48,26,9,29.85,29.74,6,-47,9,0.00
2013-8-30,92,74,60,40,28,-100,44,21,11,29.91,29.73,3,-43,5,0.00
2013-8-31,92,69,62,36,21,-100,34,20,13,29.82,29.74,1,-78,5,0.00
2013-9-3,87,78,71,56,54,48,59,44,26,29.78,29.65,6,0,10,0.00
2013-9-4,90,73,62,56,40,-100,73,39,20,29.83,29.66,7,-62,10,0.00
2013-9-5,92,74,64,49,32,-100,54,28,8,29.73,29.60,25,-58,33,0.00
2013-9-8,90,81,69,39,25,16,31,13,8,29.78,29.63,0,0,0,0.00
2013-9-9,86,71,61,40,27,-100,34,21,11,29.78,29.63,0,-32,1,0.00
2013-9-10,86,71,59,38,26,-100,36,21,11,29.77,29.66,2,-43,3,0.00
2013-9-11,89,73,63,39,27,-100,34,20,12,29.79,29.68,2,-44,4,0.00
2013-9-12,85,70,66,56,43,-100,59,41,26,29.77,29.67,4,-31,17,0.00
2013-9-13,86,67,60,54,38,-100,69,43,26,29.78,29.61,8,-81,10,0.00
2013-9-14,87,70,59,50,36,-100,63,35,21,29.69,29.55,7,-62,10,0.00
2013-9-15,92,73,60,48,30,-100,52,26,10,29.63,29.50,4,-62,11,0.00
2013-9-16,89,72,56,38,28,-100,46,22,12,29.69,29.51,3,-47,4,0.00
2013-9-17,82,67,57,39,24,-100,48,24,7,29.75,29.44,22,-47,33,0.00
2013-9-18,70,56,46,37,26,-100,66,37,20,29.93,29.74,5,-46,6,0.00
2013-9-19,78,58,44,29,17,-100,53,25,12,29.98,29.76,3,-62,4,0.00
2013-9-20,86,66,52,30,18,-100,37,19,8,29.77,29.50,0,-47,1,0.00
2013-9-21,72,57,50,41,25,-100,65,35,19,29.67,29.46,7,-51,26,0.00
2013-9-22,70,53,47,37,22,-100,64,39,19,29.89,29.67,5,-82,12,0.00
2013-9-23,75,58,46,41,28,-100,73,39,20,29.97,29.80,5,-50,6,0.00
2013-9-24,78,63,55,35,19,-100,37,22,10,29.82,29.56,1,-47,6,0.00
2013-9-25,59,48,41,37,22,-100,74,44,25,29.78,29.58,6,-62,17,0.00
2013-9-26,54,40,38,34,13,-100,74,47,32,30.04,29.78,9,-128,13,0.00
2013-9-27,61,44,35,32,14,-100,74,40,24,30.17,30.04,3,-100,5,0.00
2013-9-28,70,36,39,29,0,-100,56,37,21,30.10,29.89,5,-197,6,0.00
2013-9-29,74,70,64,29,28,25,26,21,19,29.84,29.76,0,0,0,0.00
2013-9-30,74,62,54,39,24,-100,52,28,17,29.83,29.74,0,-64,13,0.00
2013-10-1,76,57,45,41,25,-100,74,38,18,29.86,29.75,4,-66,12,0.00
2013-10-2,73,50,43,30,15,-100,51,33,7,29.89,29.71,0,-90,1,0.00
2013-10-7,64,61,58,20,18,14,22,19,15,29.80,29.77,0,0,0,0.00
2013-10-8,62,49,44,28,11,-100,46,28,19,29.87,29.60,1,-101,3,0.00
2013-10-9,55,45,45,36,16,-100,67,42,30,29.70,29.55,11,-104,15,0.00
2013-10-10,64,48,44,34,16,-100,63,37,24,29.89,29.70,3,-98,6,0.00
2013-10-11,66,55,43,36,28,-100,63,37,22,30.00,29.87,7,-4,8,0.00
2013-10-12,51,34,44,34,-11,-100,62,32,36,29.91,29.83,0,-303,0,0.00
2013-10-13,55,43,38,39,23,-100,79,58,43,30.17,29.83,2,-80,3,0.00
2013-10-14,58,40,34,32,10,-100,81,45,28,30.29,30.15,2,-155,6,0.00
2013-10-19,69,54,38,22,12,-100,43,22,14,30.18,30.04,4,-60,5,0.00
2013-10-20,72,51,40,23,6,-100,37,21,13,30.07,29.94,6,-111,7,0.00
2013-10-21,70,51,42,24,8,-100,41,23,15,30.09,29.96,3,-100,3,0.00
2013-10-22,71,51,43,26,11,-100,44,26,16,30.11,29.95,1,-96,1,0.00
2013-10-23,71,52,43,25,9,-100,42,23,14,30.02,29.89,1,-100,5,0.00
2013-10-24,72,52,44,23,7,-100,36,21,12,30.03,29.92,4,-100,8,0.00
2013-10-25,73,53,45,21,6,-100,36,19,11,30.14,30.03,2,-100,7,0.00
2013-10-26,70,50,40,20,4,-100,37,20,12,30.20,30.03,2,-105,4,0.00
2013-10-27,73,53,42,32,11,-100,68,24,10,30.03,29.34,0,-72,0,0.00
2013-10-28,44,35,34,36,18,-100,97,70,59,29.79,29.38,1,-116,6,0.19
2013-10-29,38,29,32,36,7,-100,96,73,88,30.14,29.79,0,-201,0,0.21
2013-10-30,48,37,33,35,22,-100,93,71,58,30.25,30.13,1,-82,4,0.00
2013-10-31,54,37,31,38,16,-100,95,63,45,30.35,30.23,3,-134,4,0.00
2013-11-1,58,40,33,40,17,-100,92,61,46,30.33,30.10,3,-145,5,0.00
2013-11-2,61,43,36,40,16,-100,92,51,33,30.10,29.80,6,-136,9,0.00
2013-11-3,46,37,38,33,4,-100,62,36,24,30.02,29.89,5,-129,11,0.00
2013-11-4,47,33,31,22,-2,-100,68,36,27,30.23,29.99,3,-167,4,0.00
2013-11-5,52,35,29,25,1,-100,68,38,24,30.37,30.22,6,-151,8,0.00
2013-11-6,57,38,32,29,4,-100,69,38,26,30.43,30.27,4,-166,8,0.00
2013-11-7,62,43,41,31,4,-100,60,32,19,30.28,30.01,6,-168,8,0.00
2013-11-8,64,45,40,28,9,-100,59,32,21,30.06,29.89,3,-118,6,0.00
2013-11-9,61,42,36,32,10,-100,76,41,28,30.11,29.99,5,-149,7,0.00
2013-11-10,61,35,38,30,-2,-100,62,37,24,30.18,30.10,4,-230,5,0.00
2013-11-11,63,44,35,27,7,-100,63,32,19,30.23,30.12,3,-133,5,0.00
2013-11-12,59,42,40,27,5,-100,50,32,26,30.33,30.20,2,-157,2,0.00
2013-11-13,63,42,38,31,5,-100,69,35,29,30.31,30.18,6,-180,7,0.00
2013-11-14,66,44,34,31,10,-100,76,36,22,30.18,29.76,4,-136,6,0.00
2013-11-15,47,35,36,33,10,-100,88,50,40,29.85,29.71,10,-136,11,0.00
2013-11-16,59,38,37,29,0,-100,73,36,26,29.85,29.66,7,-207,9,0.00
2013-11-17,45,25,34,30,-17,-100,74,41,52,29.99,29.85,2,-353,3,0.00
2013-11-20,52,43,34,43,39,33,95,88,69,29.90,29.73,7,0,11,0.42
2013-11-21,34,25,27,33,3,-100,97,69,65,30.42,29.90,10,-182,14,0.04
2013-11-22,41,26,25,26,-5,-100,75,46,39,30.50,30.31,6,-207,8,0.02
2013-11-23,46,30,27,26,-1,-100,81,44,32,30.32,30.20,5,-170,6,0.02
2013-11-24,46,30,26,27,3,-100,88,53,39,30.42,30.24,4,-166,8,0.00
2013-11-25,45,29,26,29,4,-100,91,59,46,30.51,30.41,3,-181,5,0.00
2013-11-26,46,31,27,32,7,-100,92,61,54,30.45,30.21,2,-168,3,0.01
2013-11-27,48,31,28,36,7,-100,92,62,54,30.22,30.01,4,-186,5,0.00
2013-11-28,50,32,30,34,7,-100,91,61,50,30.22,30.05,2,-185,4,0.00
2013-11-29,38,19,30,32,-28,-100,88,47,78,30.32,30.21,1,-442,5,0.00
2013-12-2,66,57,49,33,23,12,54,29,13,30.01,29.67,23,2,30,0.00
2013-12-3,50,22,22,34,-11,-100,91,55,55,29.87,29.53,8,-281,14,0.00
2013-12-4,24,16,13,17,-10,-100,82,59,61,30.27,30.00,7,-196,9,0.00
2013-12-5,26,16,14,14,-11,-100,85,54,51,30.30,30.21,4,-200,7,0.00
2013-12-6,29,16,12,17,-17,-100,87,53,57,30.27,30.10,6,-270,9,0.00
2013-12-7,27,12,24,21,-43,-100,85,35,60,30.06,29.85,9,-513,9,0.00
2013-12-11,23,12,5,16,-12,-100,89,61,58,30.77,30.67,2,-192,3,0.00
2013-12-12,29,14,5,15,-10,-100,89,62,53,30.69,30.50,2,-182,4,0.00
2013-12-13,29,16,10,23,-8,-100,91,67,67,30.76,30.49,4,-201,5,0.00
2013-12-14,31,17,11,21,-6,-100,92,65,61,30.86,30.74,3,-181,4,0.00
2013-12-15,38,20,13,23,3,-100,91,69,53,30.81,30.64,4,-121,6,0.00
2013-12-16,34,20,14,26,-3,-100,93,66,65,30.75,30.62,3,-182,4,0.00
2013-12-17,34,20,15,26,-2,-100,93,69,68,30.67,30.39,2,-190,3,0.00
2013-12-18,35,23,20,29,2,-100,93,70,72,30.39,29.81,4,-182,6,0.00
2013-12-19,36,22,14,30,-6,-100,90,57,56,30.18,29.81,17,-213,21,0.00
2013-12-20,31,20,10,22,-3,-100,87,62,57,30.30,30.14,4,-162,5,0.00
2013-12-21,42,18,23,33,-24,-100,85,49,70,30.16,30.09,6,-377,11,0.00
2013-12-22,51,50,48,36,35,34,59,57,55,30.35,30.33,3,0,5,0.00
2013-12-23,41,35,32,34,31,29,93,87,76,30.49,30.47,3,1,4,0.00
2013-12-24,46,28,27,37,-1,-100,93,61,68,30.55,30.46,3,-256,6,0.00
2013-12-25,30,16,23,29,-28,-100,95,53,91,30.63,30.57,2,-432,3,0.00
2013-12-26,38,24,23,33,6,-100,96,76,80,30.62,30.51,5,-169,7,0.00
2013-12-27,29,21,17,28,3,-100,97,79,93,30.57,30.35,2,-172,3,0.00
2013-12-28,39,24,21,34,2,-100,97,74,77,30.51,30.32,4,-197,8,0.00
2013-12-29,35,21,13,30,2,-100,96,76,80,30.59,30.49,4,-166,7,0.00
2013-12-30,38,24,17,32,5,-100,96,75,72,30.56,30.42,3,-168,11,0.00
2013-12-31,46,28,26,33,3,-100,95,64,58,30.46,30.33,5,-199,6,0.00
2014-1-1,42,20,24,31,-16,-100,93,57,63,30.46,30.37,4,-333,6,0.00
2014-1-2,47,30,25,31,3,-100,90,57,49,30.39,30.24,3,-198,5,0.00